createdAt,value
2022-08-16T00:00:21.988Z,0.00
2022-08-16T00:01:13.049Z,0.00
2022-08-16T00:02:12.825Z,0.00
2022-08-16T00:03:03.157Z,0.00
2022-08-16T00:03:57.238Z,0.00
2022-08-16T00:04:52.280Z,0.00
2022-08-16T00:05:48.542Z,0.00
2022-08-16T00:06:42.308Z,0.00
2022-08-16T00:07:37.341Z,0.00
2022-08-16T00:08:37.137Z,0.00
2022-08-16T00:09:27.688Z,0.00
2022-08-16T00:10:22.750Z,0.00
2022-08-16T00:11:17.780Z,0.00
2022-08-16T00:12:12.834Z,0.00
2022-08-16T00:13:08.920Z,0.00
2022-08-16T00:14:08.689Z,0.00
2022-08-16T00:14:59.206Z,0.00
2022-08-16T00:15:54.170Z,0.00
2022-08-16T00:17:00.957Z,0.00
2022-08-16T00:17:56.757Z,0.00
2022-08-16T00:18:39.515Z,0.00
2022-08-16T00:19:41.610Z,0.00
2022-08-16T00:20:29.644Z,0.00
2022-08-16T00:21:23.739Z,0.00
2022-08-16T00:22:18.750Z,0.00
2022-08-16T00:23:13.820Z,0.00
2022-08-16T00:24:11.401Z,0.00
2022-08-16T00:25:04.358Z,0.00
2022-08-16T00:26:34.885Z,0.00
2022-08-16T00:26:55.627Z,0.00
2022-08-16T00:27:49.886Z,0.00
2022-08-16T00:28:45.040Z,0.00
2022-08-16T00:29:40.311Z,0.00
2022-08-16T00:30:35.518Z,0.00
2022-08-16T00:31:58.808Z,0.00
2022-08-16T00:32:26.955Z,0.00
2022-08-16T00:33:23.596Z,0.00
2022-08-16T00:34:18.131Z,0.00
2022-08-16T00:35:15.552Z,0.00
2022-08-16T00:36:08.276Z,0.00
2022-08-16T00:37:03.741Z,0.00
2022-08-16T00:37:59.526Z,0.00
2022-08-16T00:38:54.003Z,0.00
2022-08-16T00:39:57.771Z,0.00
2022-08-16T00:40:50.620Z,0.00
2022-08-16T00:41:41.996Z,0.00
2022-08-16T00:42:36.225Z,0.00
2022-08-16T00:43:42.462Z,0.00
2022-08-16T00:44:32.653Z,0.00
2022-08-16T00:45:25.013Z,0.00
2022-08-16T00:46:22.470Z,0.00
2022-08-16T00:47:13.422Z,0.00
2022-08-16T00:48:28.632Z,0.00
2022-08-16T00:49:03.744Z,0.00
2022-08-16T00:49:57.980Z,0.00
2022-08-16T00:50:55.368Z,0.00
2022-08-16T00:51:55.195Z,0.00
2022-08-16T00:52:45.976Z,0.00
2022-08-16T00:53:39.100Z,0.00
2022-08-16T00:54:33.227Z,0.00
2022-08-16T00:55:28.219Z,0.00
2022-08-16T00:56:57.803Z,0.00
2022-08-16T00:57:19.406Z,0.00
2022-08-16T00:58:16.254Z,0.00
2022-08-16T00:59:09.576Z,0.00
2022-08-16T01:00:03.938Z,0.00
2022-08-16T01:00:58.895Z,0.00
2022-08-16T01:01:53.928Z,0.00
2022-08-16T01:02:49.188Z,0.00
2022-08-16T01:03:43.960Z,0.00
2022-08-16T01:04:40.035Z,0.00
2022-08-16T01:05:35.201Z,0.00
2022-08-16T01:06:39.803Z,0.00
2022-08-16T01:07:25.492Z,0.00
2022-08-16T01:08:34.917Z,0.00
2022-08-16T01:09:15.706Z,0.00
2022-08-16T01:10:16.075Z,0.00
2022-08-16T01:11:06.480Z,0.00
2022-08-16T01:12:00.658Z,0.00
2022-08-16T01:12:56.657Z,0.00
2022-08-16T01:13:51.813Z,0.00
2022-08-16T01:14:47.171Z,0.00
2022-08-16T01:15:44.015Z,0.00
2022-08-16T01:16:39.022Z,0.00
2022-08-16T01:17:36.592Z,0.00
2022-08-16T01:18:40.377Z,0.00
2022-08-16T01:19:26.211Z,0.00
2022-08-16T01:20:24.359Z,0.00
2022-08-16T01:21:22.455Z,0.00
2022-08-16T01:22:47.588Z,0.00
2022-08-16T01:23:09.328Z,0.00
2022-08-16T01:24:03.589Z,0.00
2022-08-16T01:24:59.311Z,0.00
2022-08-16T01:25:59.940Z,0.00
2022-08-16T01:26:50.803Z,0.00
2022-08-16T01:27:45.557Z,0.00
2022-08-16T01:28:45.295Z,0.00
2022-08-16T01:29:56.831Z,0.00
2022-08-16T01:30:32.234Z,0.00
2022-08-16T01:31:31.002Z,0.00
2022-08-16T01:32:33.167Z,0.00
2022-08-16T01:33:19.337Z,0.00
2022-08-16T01:34:25.104Z,0.00
2022-08-16T01:35:09.531Z,0.00
2022-08-16T01:36:09.387Z,0.00
2022-08-16T01:37:00.059Z,0.00
2022-08-16T01:37:54.628Z,0.00
2022-08-16T01:38:53.248Z,0.00
2022-08-16T01:39:46.384Z,0.00
2022-08-16T01:40:40.584Z,0.00
2022-08-16T01:41:41.910Z,0.00
2022-08-16T01:42:31.702Z,0.00
2022-08-16T01:43:25.714Z,0.00
2022-08-16T01:44:20.935Z,0.00
2022-08-16T01:45:16.092Z,0.00
2022-08-16T01:46:17.464Z,0.00
2022-08-16T01:47:07.216Z,0.00
2022-08-16T01:48:05.663Z,0.00
2022-08-16T01:49:01.682Z,0.00
2022-08-16T01:50:42.342Z,0.00
2022-08-16T01:51:08.857Z,0.00
2022-08-16T01:51:49.154Z,0.00
2022-08-16T01:52:46.521Z,0.00
2022-08-16T01:53:40.435Z,0.00
2022-08-16T01:54:33.230Z,0.00
2022-08-16T01:55:35.607Z,0.00
2022-08-16T01:56:25.331Z,0.00
2022-08-16T01:57:18.291Z,0.00
2022-08-16T01:58:13.667Z,0.00
2022-08-16T01:59:16.019Z,0.00
2022-08-16T02:00:05.068Z,0.00
2022-08-16T02:01:00.220Z,0.00
2022-08-16T02:01:59.746Z,0.00
2022-08-16T02:02:52.501Z,0.00
2022-08-16T02:03:45.571Z,0.00
2022-08-16T02:04:49.779Z,0.00
2022-08-16T02:05:36.934Z,0.00
2022-08-16T02:06:34.726Z,0.00
2022-08-16T02:07:27.127Z,0.00
2022-08-16T02:08:33.463Z,0.00
2022-08-16T02:09:17.672Z,0.00
2022-08-16T02:10:11.337Z,0.00
2022-08-16T02:11:06.470Z,0.00
2022-08-16T02:12:43.583Z,0.00
2022-08-16T02:13:00.009Z,0.00
2022-08-16T02:13:55.787Z,0.00
2022-08-16T02:14:50.866Z,0.00
2022-08-16T02:15:45.997Z,0.00
2022-08-16T02:16:40.974Z,0.00
2022-08-16T02:17:35.974Z,0.00
2022-08-16T02:18:31.048Z,0.00
2022-08-16T02:19:58.486Z,0.00
2022-08-16T02:20:26.233Z,0.00
2022-08-16T02:21:17.334Z,0.00
2022-08-16T02:22:33.562Z,0.00
2022-08-16T02:23:07.469Z,0.00
2022-08-16T02:24:01.553Z,0.00
2022-08-16T02:24:57.577Z,0.00
2022-08-16T02:25:53.997Z,0.00
2022-08-16T02:26:47.895Z,0.00
2022-08-16T02:27:44.752Z,0.00
2022-08-16T02:28:45.341Z,0.00
2022-08-16T02:29:36.085Z,0.00
2022-08-16T02:30:36.976Z,0.00
2022-08-16T02:32:03.157Z,0.00
2022-08-16T02:33:02.564Z,0.00
2022-08-16T02:33:17.482Z,0.00
2022-08-16T02:34:12.089Z,0.00
2022-08-16T02:35:06.537Z,0.00
2022-08-16T02:36:01.572Z,0.00
2022-08-16T02:36:56.665Z,0.00
2022-08-16T02:37:52.956Z,0.00
2022-08-16T02:38:46.773Z,0.00
2022-08-16T02:39:41.985Z,0.00
2022-08-16T02:40:37.395Z,0.00
2022-08-16T02:41:32.069Z,0.00
2022-08-16T02:42:28.223Z,0.00
2022-08-16T02:43:26.706Z,0.00
2022-08-16T02:44:18.236Z,0.00
2022-08-16T02:45:12.196Z,0.00
2022-08-16T02:46:07.461Z,0.00
2022-08-16T02:47:02.401Z,0.00
2022-08-16T02:48:00.224Z,0.00
2022-08-16T02:48:52.545Z,0.00
2022-08-16T02:50:52.315Z,0.00
2022-08-16T02:51:04.119Z,0.00
2022-08-16T02:51:39.233Z,0.00
2022-08-16T02:52:33.468Z,0.00
2022-08-16T02:53:28.663Z,0.00
2022-08-16T02:54:24.489Z,0.00
2022-08-16T02:55:19.634Z,0.00
2022-08-16T02:56:16.294Z,0.00
2022-08-16T02:57:10.503Z,0.00
2022-08-16T02:58:06.494Z,0.00
2022-08-16T02:59:01.641Z,0.00
2022-08-16T02:59:56.912Z,0.00
2022-08-16T03:00:52.723Z,0.00
2022-08-16T03:01:47.911Z,0.00
2022-08-16T03:02:43.667Z,0.00
2022-08-16T03:04:39.315Z,0.00
2022-08-16T03:04:50.312Z,0.00
2022-08-16T03:05:31.593Z,0.00
2022-08-16T03:06:42.003Z,0.00
2022-08-16T03:07:27.596Z,0.00
2022-08-16T03:08:52.625Z,0.00
2022-08-16T03:09:16.321Z,0.00
2022-08-16T03:10:06.617Z,0.00
2022-08-16T03:11:01.740Z,0.00
2022-08-16T03:11:58.464Z,0.00
2022-08-16T03:12:55.438Z,0.00
2022-08-16T03:13:51.182Z,0.00
2022-08-16T03:14:44.770Z,0.00
2022-08-16T03:15:40.013Z,0.00
2022-08-16T03:16:39.082Z,0.00
2022-08-16T03:17:32.634Z,0.00
2022-08-16T03:18:40.551Z,0.00
2022-08-16T03:19:23.595Z,0.00
2022-08-16T03:20:18.484Z,0.00
2022-08-16T03:21:13.605Z,0.00
2022-08-16T03:22:09.554Z,0.00
2022-08-16T03:23:04.685Z,0.00
2022-08-16T03:23:59.843Z,0.00
2022-08-16T03:24:57.522Z,0.00
2022-08-16T03:25:50.841Z,0.00
2022-08-16T03:26:46.087Z,0.00
2022-08-16T03:27:42.937Z,0.00
2022-08-16T03:28:38.033Z,0.00
2022-08-16T03:29:33.876Z,0.00
2022-08-16T03:30:29.092Z,0.00
2022-08-16T03:31:24.421Z,0.00
2022-08-16T03:32:19.971Z,0.00
2022-08-16T03:33:15.234Z,0.00
2022-08-16T03:34:11.070Z,0.00
2022-08-16T03:35:06.207Z,0.00
2022-08-16T03:36:19.886Z,1.00
2022-08-16T03:36:57.724Z,1.00
2022-08-16T03:38:02.659Z,1.00
2022-08-16T03:38:47.814Z,1.00
2022-08-16T03:39:42.519Z,1.00
2022-08-16T03:40:36.916Z,1.00
2022-08-16T03:41:49.780Z,1.00
2022-08-16T03:42:28.058Z,1.00
2022-08-16T03:43:22.134Z,1.00
2022-08-16T03:44:44.042Z,1.00
2022-08-16T03:45:13.145Z,2.00
2022-08-16T03:46:07.165Z,2.00
2022-08-16T03:47:02.204Z,3.00
2022-08-16T03:47:58.578Z,3.00
2022-08-16T03:48:53.096Z,3.00
2022-08-16T03:49:51.771Z,4.00
2022-08-16T03:50:44.156Z,5.00
2022-08-16T03:51:40.395Z,6.00
2022-08-16T03:52:35.180Z,8.00
2022-08-16T03:53:37.636Z,9.00
2022-08-16T03:54:28.588Z,10.00
2022-08-16T03:55:21.045Z,12.00
2022-08-16T03:56:20.084Z,14.00
2022-08-16T03:57:15.604Z,16.00
2022-08-16T03:58:06.423Z,18.00
2022-08-16T03:59:01.540Z,21.00
2022-08-16T03:59:56.642Z,26.00
2022-08-16T04:00:56.809Z,30.00
2022-08-16T04:01:49.062Z,33.00
2022-08-16T04:02:42.726Z,39.00
2022-08-16T04:03:37.721Z,43.00
2022-08-16T04:04:33.994Z,50.00
2022-08-16T04:05:27.913Z,57.00
2022-08-16T04:06:22.975Z,62.00
2022-08-16T04:07:17.926Z,68.00
2022-08-16T04:08:23.735Z,82.00
2022-08-16T04:09:12.558Z,88.00
2022-08-16T04:10:36.794Z,99.00
2022-08-16T04:11:02.369Z,111.00
2022-08-16T04:11:56.423Z,127.00
2022-08-16T04:12:53.503Z,132.00
2022-08-16T04:14:01.372Z,147.00
2022-08-16T04:14:46.457Z,160.00
2022-08-16T04:15:38.058Z,183.00
2022-08-16T04:16:32.332Z,200.00
2022-08-16T04:17:27.610Z,204.00
2022-08-16T04:18:22.870Z,227.00
2022-08-16T04:19:18.130Z,245.00
2022-08-16T04:20:31.126Z,268.00
2022-08-16T04:21:09.816Z,292.00
2022-08-16T04:22:08.795Z,304.00
2022-08-16T04:22:59.883Z,319.00
2022-08-16T04:23:54.735Z,352.00
2022-08-16T04:24:54.445Z,383.00
2022-08-16T04:25:47.107Z,408.00
2022-08-16T04:26:46.136Z,451.00
2022-08-16T04:27:36.886Z,452.00
2022-08-16T04:28:54.593Z,488.00
2022-08-16T04:29:26.993Z,505.00
2022-08-16T04:30:32.503Z,517.00
2022-08-16T04:31:17.828Z,553.00
2022-08-16T04:32:12.184Z,587.00
2022-08-16T04:33:07.594Z,597.00
2022-08-16T04:34:03.050Z,663.00
2022-08-16T04:34:59.519Z,669.00
2022-08-16T04:35:53.761Z,717.00
2022-08-16T04:36:49.143Z,703.00
2022-08-16T04:37:44.492Z,759.00
2022-08-16T04:38:40.036Z,769.00
2022-08-16T04:39:36.523Z,794.00
2022-08-16T04:40:31.735Z,841.00
2022-08-16T04:41:32.350Z,884.00
2022-08-16T04:42:25.838Z,909.00
2022-08-16T04:43:17.578Z,944.00
2022-08-16T04:44:33.109Z,969.00
2022-08-16T04:45:08.151Z,994.00
2022-08-16T04:46:03.089Z,1019.00
2022-08-16T04:47:00.722Z,1041.00
2022-08-16T04:47:56.084Z,1079.00
2022-08-16T04:48:48.567Z,1099.00
2022-08-16T04:49:45.527Z,1119.00
2022-08-16T04:50:41.755Z,1164.00
2022-08-16T04:51:35.747Z,1152.00
2022-08-16T04:52:34.784Z,1199.00
2022-08-16T04:53:27.637Z,1252.00
2022-08-16T04:54:23.024Z,1298.00
2022-08-16T04:55:18.456Z,1325.00
2022-08-16T04:56:13.812Z,1379.00
2022-08-16T04:57:09.216Z,1386.00
2022-08-16T04:58:04.627Z,1344.00
2022-08-16T04:59:01.016Z,1448.00
2022-08-16T04:59:55.434Z,1472.00
2022-08-16T05:00:51.269Z,1508.00
2022-08-16T05:01:57.949Z,1499.00
2022-08-16T05:02:43.039Z,1534.00
2022-08-16T05:03:41.939Z,1580.00
2022-08-16T05:04:33.633Z,1596.00
2022-08-16T05:05:32.675Z,1633.00
2022-08-16T05:06:44.850Z,1661.00
2022-08-16T05:07:20.541Z,1694.00
2022-08-16T05:08:28.893Z,1661.00
2022-08-16T05:09:10.625Z,1744.00
2022-08-16T05:10:05.006Z,1741.00
2022-08-16T05:11:03.594Z,1787.00
2022-08-16T05:11:57.235Z,1839.00
2022-08-16T05:12:51.581Z,1902.00
2022-08-16T05:13:46.721Z,1861.00
2022-08-16T05:14:45.677Z,1940.00
2022-08-16T05:15:36.720Z,1979.00
2022-08-16T05:16:31.765Z,1991.00
2022-08-16T05:17:26.892Z,2023.00
2022-08-16T05:18:26.933Z,2063.00
2022-08-16T05:19:17.967Z,2104.00
2022-08-16T05:20:38.993Z,2174.00
2022-08-16T05:21:11.298Z,2193.00
2022-08-16T05:22:03.874Z,2221.00
2022-08-16T05:22:59.291Z,2353.00
2022-08-16T05:23:58.557Z,2396.00
2022-08-16T05:24:55.065Z,2458.00
2022-08-16T05:25:48.465Z,2619.00
2022-08-16T05:26:42.967Z,2753.00
2022-08-16T05:27:42.773Z,2941.00
2022-08-16T05:28:39.063Z,3144.00
2022-08-16T05:30:00.119Z,3258.00
2022-08-16T05:30:34.971Z,3246.00
2022-08-16T05:31:16.815Z,3249.00
2022-08-16T05:32:32.749Z,3380.00
2022-08-16T05:33:08.902Z,3577.00
2022-08-16T05:34:04.561Z,3813.00
2022-08-16T05:34:58.863Z,3980.00
2022-08-16T05:35:55.040Z,4056.00
2022-08-16T05:36:51.215Z,4146.00
2022-08-16T05:37:45.047Z,4259.00
2022-08-16T05:38:40.554Z,4456.00
2022-08-16T05:39:40.801Z,4630.00
2022-08-16T05:40:32.225Z,4864.00
2022-08-16T05:41:26.642Z,5026.00
2022-08-16T05:42:22.017Z,5230.00
2022-08-16T05:43:18.462Z,5175.00
2022-08-16T05:44:24.157Z,5219.00
2022-08-16T05:45:09.390Z,5140.00
2022-08-16T05:46:03.851Z,5347.00
2022-08-16T05:47:00.640Z,5384.00
2022-08-16T05:48:00.408Z,5319.00
2022-08-16T05:49:00.122Z,5271.00
2022-08-16T05:49:50.689Z,5391.00
2022-08-16T05:50:44.775Z,5489.00
2022-08-16T05:51:41.668Z,5593.00
2022-08-16T05:52:35.764Z,5762.00
2022-08-16T05:53:31.141Z,5857.00
2022-08-16T05:54:27.571Z,5707.00
2022-08-16T05:55:21.929Z,5657.00
2022-08-16T05:56:19.546Z,5587.00
2022-08-16T05:57:13.264Z,5739.00
2022-08-16T05:58:08.156Z,5850.00
2022-08-16T05:59:03.195Z,6024.00
2022-08-16T06:00:00.015Z,6029.00
2022-08-16T06:00:53.309Z,5932.00
2022-08-16T06:01:48.447Z,5717.00
2022-08-16T06:02:43.421Z,5581.00
2022-08-16T06:03:38.513Z,5583.00
2022-08-16T06:04:36.724Z,5582.00
2022-08-16T06:05:28.645Z,5688.00
2022-08-16T06:06:28.202Z,6045.00
2022-08-16T06:07:26.389Z,6537.00
2022-08-16T06:08:31.685Z,6824.00
2022-08-16T06:09:11.084Z,6922.00
2022-08-16T06:10:05.651Z,6787.00
2022-08-16T06:11:05.611Z,6956.00
2022-08-16T06:11:57.356Z,6318.00
2022-08-16T06:12:55.355Z,6258.00
2022-08-16T06:13:46.594Z,6207.00
2022-08-16T06:14:41.664Z,6271.00
2022-08-16T06:15:36.737Z,6245.00
2022-08-16T06:16:31.853Z,6939.00
2022-08-16T06:17:43.936Z,7051.00
2022-08-16T06:18:22.971Z,6783.00
2022-08-16T06:19:17.294Z,7012.00
2022-08-16T06:20:12.781Z,5953.00
2022-08-16T06:21:08.171Z,5573.00
2022-08-16T06:22:03.536Z,5288.00
2022-08-16T06:23:03.675Z,4928.00
2022-08-16T06:23:55.380Z,4527.00
2022-08-16T06:24:53.642Z,4084.00
2022-08-16T06:25:53.260Z,4170.00
2022-08-16T06:26:57.375Z,4174.00
2022-08-16T06:27:39.492Z,4747.00
2022-08-16T06:28:34.974Z,4881.00
2022-08-16T06:29:27.207Z,4965.00
2022-08-16T06:30:22.609Z,4963.00
2022-08-16T06:31:19.010Z,4915.00
2022-08-16T06:32:27.353Z,4923.00
2022-08-16T06:33:12.459Z,4914.00
2022-08-16T06:34:04.234Z,4887.00
2022-08-16T06:35:02.115Z,4961.00
2022-08-16T06:35:59.298Z,5106.00
2022-08-16T06:36:50.935Z,5163.00
2022-08-16T06:37:51.495Z,5354.00
2022-08-16T06:38:55.511Z,5499.00
2022-08-16T06:39:49.708Z,5440.00
2022-08-16T06:40:33.713Z,5371.00
2022-08-16T06:41:27.629Z,5446.00
2022-08-16T06:42:24.706Z,5459.00
2022-08-16T06:43:19.917Z,5513.00
2022-08-16T06:44:20.707Z,5593.00
2022-08-16T06:45:10.898Z,5700.00
2022-08-16T06:46:04.958Z,5718.00
2022-08-16T06:47:02.814Z,5813.00
2022-08-16T06:47:57.068Z,5837.00
2022-08-16T06:48:51.840Z,5781.00
2022-08-16T06:49:54.244Z,6187.00
2022-08-16T06:50:41.664Z,6273.00
2022-08-16T06:51:45.858Z,6281.00
2022-08-16T06:52:57.960Z,6179.00
2022-08-16T06:53:26.852Z,6316.00
2022-08-16T06:54:20.860Z,6244.00
2022-08-16T06:55:16.003Z,6270.00
2022-08-16T06:56:14.648Z,6019.00
2022-08-16T06:57:14.918Z,5866.00
2022-08-16T06:58:02.317Z,5882.00
2022-08-16T06:58:57.315Z,6010.00
2022-08-16T06:59:53.107Z,6560.00
2022-08-16T07:00:48.142Z,6925.00
2022-08-16T07:01:42.802Z,7281.00
2022-08-16T07:02:37.880Z,7594.00
2022-08-16T07:03:54.544Z,7865.00
2022-08-16T07:04:32.832Z,7978.00
2022-08-16T07:05:41.594Z,7983.00
2022-08-16T07:06:26.461Z,8140.00
2022-08-16T07:07:19.101Z,8514.00
2022-08-16T07:08:14.459Z,8628.00
2022-08-16T07:09:10.127Z,8734.00
2022-08-16T07:10:08.426Z,8874.00
2022-08-16T07:11:01.579Z,9071.00
2022-08-16T07:11:56.267Z,9155.00
2022-08-16T07:13:03.347Z,9244.00
2022-08-16T07:14:00.203Z,9336.00
2022-08-16T07:14:43.863Z,9500.00
2022-08-16T07:15:50.104Z,9649.00
2022-08-16T07:16:34.620Z,9762.00
2022-08-16T07:17:29.056Z,10004.00
2022-08-16T07:18:24.876Z,10474.00
2022-08-16T07:19:19.601Z,11034.00
2022-08-16T07:20:34.746Z,15751.00
2022-08-16T07:21:10.572Z,28408.00
2022-08-16T07:22:04.705Z,37848.00
2022-08-16T07:23:01.013Z,38192.00
2022-08-16T07:23:57.961Z,38224.00
2022-08-16T07:24:50.760Z,39528.00
2022-08-16T07:25:44.807Z,41176.00
2022-08-16T07:26:39.911Z,42000.00
2022-08-16T07:27:37.002Z,41864.00
2022-08-16T07:28:32.288Z,40344.00
2022-08-16T07:29:27.698Z,40200.00
2022-08-16T07:30:38.380Z,41736.00
2022-08-16T07:31:19.580Z,42736.00
2022-08-16T07:32:14.101Z,42896.00
2022-08-16T07:33:09.757Z,44496.00
2022-08-16T07:34:05.186Z,47408.00
2022-08-16T07:35:01.574Z,46560.00
2022-08-16T07:35:56.102Z,47520.00
2022-08-16T07:36:58.334Z,46712.00
2022-08-16T07:37:47.976Z,46712.00
2022-08-16T07:38:42.450Z,47536.00
2022-08-16T07:39:43.232Z,47328.00
2022-08-16T07:40:59.246Z,48120.00
2022-08-16T07:41:29.970Z,46832.00
2022-08-16T07:42:28.245Z,47520.00
2022-08-16T07:43:20.042Z,48440.00
2022-08-16T07:44:16.965Z,47872.00
2022-08-16T07:45:10.855Z,46232.00
2022-08-16T07:46:06.527Z,48440.00
2022-08-16T07:47:02.860Z,50120.00
2022-08-16T07:47:57.278Z,49600.00
2022-08-16T07:48:52.669Z,48576.00
2022-08-16T07:49:52.898Z,49248.00
2022-08-16T07:50:56.594Z,51528.00
2022-08-16T07:51:43.463Z,49456.00
2022-08-16T07:52:38.709Z,47112.00
2022-08-16T07:53:33.284Z,48448.00
2022-08-16T07:54:37.967Z,50648.00
2022-08-16T07:55:25.175Z,52336.00
2022-08-16T07:56:19.616Z,51952.00
2022-08-16T07:57:15.140Z,54344.00
2022-08-16T07:58:10.775Z,53344.00
2022-08-16T07:59:07.056Z,52536.00
2022-08-16T08:00:01.759Z,53584.00
2022-08-16T08:00:57.277Z,56216.00
2022-08-16T08:01:53.075Z,57552.00
2022-08-16T08:02:48.604Z,58176.00
2022-08-16T08:03:48.412Z,57432.00
2022-08-16T08:04:40.345Z,57056.00
2022-08-16T08:05:35.860Z,58424.00
2022-08-16T08:06:30.194Z,58304.00
2022-08-16T08:07:27.592Z,56496.00
2022-08-16T08:08:50.284Z,58320.00
2022-08-16T08:09:18.675Z,57912.00
2022-08-16T08:10:17.403Z,55920.00
2022-08-16T08:11:10.219Z,57344.00
2022-08-16T08:12:05.358Z,58728.00
2022-08-16T08:13:00.173Z,58936.00
2022-08-16T08:13:55.628Z,58608.00
2022-08-16T08:14:51.190Z,58688.00
2022-08-16T08:15:53.150Z,57672.00
2022-08-16T08:16:45.330Z,56800.00
2022-08-16T08:17:43.198Z,56376.00
2022-08-16T08:18:34.119Z,56936.00
2022-08-16T08:19:28.579Z,57816.00
2022-08-16T08:20:28.350Z,58568.00
2022-08-16T08:21:26.376Z,57464.00
2022-08-16T08:22:22.191Z,57360.00
2022-08-16T08:23:14.382Z,57688.00
2022-08-16T08:24:09.886Z,57328.00
2022-08-16T08:25:05.370Z,57712.00
2022-08-16T08:26:00.960Z,60120.00
2022-08-16T08:26:56.468Z,60656.00
2022-08-16T08:27:51.998Z,61176.00
2022-08-16T08:28:48.538Z,61320.00
2022-08-16T08:29:43.478Z,61840.00
2022-08-16T08:30:52.200Z,61592.00
2022-08-16T08:31:35.370Z,60376.00
2022-08-16T08:33:00.215Z,59808.00
2022-08-16T08:33:26.827Z,60800.00
2022-08-16T08:34:22.223Z,61168.00
2022-08-16T08:35:16.888Z,60640.00
2022-08-16T08:36:11.889Z,59712.00
2022-08-16T08:37:07.901Z,57744.00
2022-08-16T08:38:01.946Z,58104.00
2022-08-16T08:38:56.948Z,58928.00
2022-08-16T08:39:54.723Z,60744.00
2022-08-16T08:40:47.995Z,59192.00
2022-08-16T08:41:43.543Z,61912.00
2022-08-16T08:42:39.791Z,62800.00
2022-08-16T08:43:41.845Z,61368.00
2022-08-16T08:44:31.334Z,62456.00
2022-08-16T08:45:47.003Z,63136.00
2022-08-16T08:46:22.337Z,65064.00
2022-08-16T08:47:16.177Z,65535.00
2022-08-16T08:48:11.519Z,65535.00
2022-08-16T08:49:08.854Z,63488.00
2022-08-16T08:50:03.860Z,65535.00
2022-08-16T08:50:59.437Z,65408.00
2022-08-16T08:51:54.854Z,63656.00
2022-08-16T08:52:51.053Z,63592.00
2022-08-16T08:53:45.992Z,64144.00
2022-08-16T08:54:42.505Z,63840.00
2022-08-16T08:55:37.186Z,65535.00
2022-08-16T08:56:35.037Z,64912.00
2022-08-16T08:57:28.132Z,64848.00
2022-08-16T08:58:23.658Z,65535.00
2022-08-16T08:59:22.219Z,65535.00
2022-08-16T09:00:14.792Z,65535.00
2022-08-16T09:01:10.190Z,65535.00
2022-08-16T09:02:05.738Z,65535.00
2022-08-16T09:03:04.851Z,65535.00
2022-08-16T09:04:00.244Z,65535.00
2022-08-16T09:04:55.898Z,65535.00
2022-08-16T09:05:51.808Z,65535.00
2022-08-16T09:06:46.589Z,65535.00
2022-08-16T09:08:00.998Z,65535.00
2022-08-16T09:08:38.821Z,65535.00
2022-08-16T09:09:34.064Z,65535.00
2022-08-16T09:10:29.435Z,65535.00
2022-08-16T09:11:24.086Z,65535.00
2022-08-16T09:12:35.478Z,65535.00
2022-08-16T09:13:16.098Z,64968.00
2022-08-16T09:14:23.818Z,60872.00
2022-08-16T09:15:07.186Z,63696.00
2022-08-16T09:16:01.587Z,65272.00
2022-08-16T09:17:03.513Z,64696.00
2022-08-16T09:17:54.825Z,65535.00
2022-08-16T09:18:50.603Z,65535.00
2022-08-16T09:19:42.862Z,65535.00
2022-08-16T09:20:59.582Z,65535.00
2022-08-16T09:21:33.044Z,65535.00
2022-08-16T09:22:27.077Z,65535.00
2022-08-16T09:23:22.152Z,65535.00
2022-08-16T09:24:46.403Z,65535.00
2022-08-16T09:25:14.592Z,65535.00
2022-08-16T09:26:45.620Z,65535.00
2022-08-16T09:27:05.147Z,65535.00
2022-08-16T09:28:02.672Z,65535.00
2022-08-16T09:29:15.527Z,65535.00
2022-08-16T09:29:59.788Z,65535.00
2022-08-16T09:30:45.336Z,65535.00
2022-08-16T09:31:41.287Z,65535.00
2022-08-16T09:32:35.167Z,65535.00
2022-08-16T09:33:32.548Z,65535.00
2022-08-16T09:34:26.520Z,65535.00
2022-08-16T09:35:20.535Z,65535.00
2022-08-16T09:36:32.675Z,65535.00
2022-08-16T09:37:17.603Z,65535.00
2022-08-16T09:38:08.839Z,65535.00
2022-08-16T09:39:00.842Z,65535.00
2022-08-16T09:39:56.406Z,65535.00
2022-08-16T09:40:51.829Z,65535.00
2022-08-16T09:41:53.458Z,65535.00
2022-08-16T09:42:44.036Z,65535.00
2022-08-16T09:43:59.719Z,65535.00
2022-08-16T09:45:11.604Z,65535.00
2022-08-16T09:45:30.276Z,65535.00
2022-08-16T09:46:33.489Z,65535.00
2022-08-16T09:47:23.601Z,65535.00
2022-08-16T09:48:44.551Z,65535.00
2022-08-16T09:49:12.013Z,65535.00
2022-08-16T09:50:04.687Z,65535.00
2022-08-16T09:51:00.795Z,65535.00
2022-08-16T09:51:54.824Z,65535.00
2022-08-16T09:52:50.023Z,65535.00
2022-08-16T09:53:44.983Z,65535.00
2022-08-16T09:54:44.455Z,65535.00
2022-08-16T09:55:44.715Z,65535.00
2022-08-16T09:56:32.842Z,65535.00
2022-08-16T09:57:27.285Z,65535.00
2022-08-16T09:58:41.368Z,65535.00
2022-08-16T09:59:19.250Z,65535.00
2022-08-16T10:00:42.687Z,65535.00
2022-08-16T10:01:11.645Z,65535.00
2022-08-16T10:02:22.910Z,65535.00
2022-08-16T10:03:00.938Z,65535.00
2022-08-16T10:04:01.604Z,65535.00
2022-08-16T10:04:54.397Z,65535.00
2022-08-16T10:05:46.449Z,65535.00
2022-08-16T10:06:46.244Z,65535.00
2022-08-16T10:07:45.154Z,65535.00
2022-08-16T10:08:33.980Z,65535.00
2022-08-16T10:09:53.897Z,65535.00
2022-08-16T10:10:30.396Z,65535.00
2022-08-16T10:11:24.798Z,65535.00
2022-08-16T10:12:19.502Z,65535.00
2022-08-16T10:13:11.481Z,65535.00
2022-08-16T10:14:06.995Z,65535.00
2022-08-16T10:15:02.430Z,65535.00
2022-08-16T10:15:57.963Z,65535.00
2022-08-16T10:16:59.791Z,65535.00
2022-08-16T10:17:59.845Z,65535.00
2022-08-16T10:19:02.243Z,65535.00
2022-08-16T10:19:40.763Z,65535.00
2022-08-16T10:20:35.378Z,65535.00
2022-08-16T10:21:32.065Z,65535.00
2022-08-16T10:22:26.629Z,65535.00
2022-08-16T10:23:21.980Z,65535.00
2022-08-16T10:24:28.094Z,65535.00
2022-08-16T10:27:20.712Z,65535.00
2022-08-16T10:27:20.712Z,65535.00
2022-08-16T10:27:25.813Z,65535.00
2022-08-16T10:28:27.484Z,65535.00
2022-08-16T10:28:55.675Z,65535.00
2022-08-16T10:30:01.329Z,65535.00
2022-08-16T10:30:46.561Z,65535.00
2022-08-16T10:31:45.649Z,65535.00
2022-08-16T10:32:36.555Z,65535.00
2022-08-16T10:33:33.269Z,15298.00
2022-08-16T10:34:32.506Z,21544.00
2022-08-16T10:35:23.093Z,57336.00
2022-08-16T10:36:37.778Z,18592.00
2022-08-16T10:37:13.168Z,65535.00
2022-08-16T10:38:09.571Z,65535.00
2022-08-16T10:39:03.217Z,65535.00
2022-08-16T10:39:57.406Z,65535.00
2022-08-16T10:40:53.942Z,65535.00
2022-08-16T10:41:49.343Z,65535.00
2022-08-16T10:42:45.055Z,65535.00
2022-08-16T10:43:40.381Z,65535.00
2022-08-16T10:44:35.748Z,11112.00
2022-08-16T10:45:36.921Z,65535.00
2022-08-16T10:46:40.011Z,65535.00
2022-08-16T10:47:23.143Z,65535.00
2022-08-16T10:48:27.319Z,65535.00
2022-08-16T10:49:16.690Z,65535.00
2022-08-16T10:50:18.708Z,65535.00
2022-08-16T10:51:05.449Z,65535.00
2022-08-16T10:52:02.755Z,65535.00
2022-08-16T10:52:59.220Z,65535.00
2022-08-16T10:53:50.265Z,65535.00
2022-08-16T10:55:44.983Z,65535.00
2022-08-16T10:55:57.402Z,65535.00
2022-08-16T10:56:51.837Z,65535.00
2022-08-16T10:57:32.911Z,65535.00
2022-08-16T10:58:34.376Z,65535.00
2022-08-16T10:59:32.557Z,65535.00
2022-08-16T11:00:21.372Z,65535.00
2022-08-16T11:01:43.799Z,65535.00
2022-08-16T11:02:59.375Z,31584.00
2022-08-16T11:03:03.754Z,27320.00
2022-08-16T11:04:01.297Z,29648.00
2022-08-16T11:05:11.064Z,22784.00
2022-08-16T11:05:59.588Z,65535.00
2022-08-16T11:07:06.649Z,65535.00
2022-08-16T11:07:42.988Z,57656.00
2022-08-16T11:08:40.727Z,16535.00
2022-08-16T11:09:43.746Z,16204.00
2022-08-16T11:11:24.581Z,61904.00
2022-08-16T11:12:18.501Z,65535.00
2022-08-16T11:13:57.204Z,65535.00
2022-08-16T11:14:11.143Z,65535.00
2022-08-16T11:15:12.068Z,65535.00
2022-08-16T11:16:00.268Z,65535.00
2022-08-16T11:17:03.024Z,65535.00
2022-08-16T11:18:48.450Z,65535.00
2022-08-16T11:18:48.935Z,65535.00
2022-08-16T11:20:41.983Z,32504.00
2022-08-16T11:21:30.252Z,65535.00
2022-08-16T11:22:42.162Z,65535.00
2022-08-16T11:23:21.189Z,23152.00
2022-08-16T11:24:42.544Z,65535.00
2022-08-16T11:25:12.719Z,65535.00
2022-08-16T11:26:23.641Z,65535.00
2022-08-16T11:27:23.434Z,65535.00